Time;durP1;ratioP1;P1;durP2;ratioP2;P2;SDS_P1;SDS_P2;PMS_P1;PMS_P2;Temp;Humidity;BMP_temperature;BMP_pressure;BME280_temperature;BME280_humidity;BME280_pressure;Samples;Min_cycle;Max_cycle;Signal;HPM_P1;HPM_P2
2022/06/27 00:01:45;;;;;;;1.33;0.50;;;26.20;93.80;;;;;;5056559;28;20237;-56
2022/06/27 00:04:12;;;;;;;;;;;26.20;93.80;;;;;;5054694;28;20051;-57
2022/06/27 00:06:39;;;;;;;0.20;0.20;;;26.20;93.80;;;;;;5051878;28;19935;-57
2022/06/27 00:09:07;;;;;;;0.80;0.63;;;26.20;93.90;;;;;;5047927;28;20052;-54
2022/06/27 00:11:34;;;;;;;0.55;0.55;;;26.20;93.90;;;;;;5047575;28;20419;-54
2022/06/27 00:14:03;;;;;;;1.20;1.05;;;26.20;94.00;;;;;;5055889;28;20082;-51
2022/06/27 00:16:30;;;;;;;0.20;0.20;;;26.20;94.00;;;;;;5061826;28;20067;-55
2022/06/27 00:19:15;;;;;;;1.75;1.00;;;26.20;94.00;;;;;;5053799;28;20071;-53
2022/06/27 00:21:44;;;;;;;0.30;0.30;;;26.20;94.10;;;;;;5056045;28;20052;-58
2022/06/27 00:24:11;;;;;;;0.20;0.20;;;26.20;94.10;;;;;;5047297;28;20052;-59
2022/06/27 00:26:38;;;;;;;0.57;0.57;;;26.20;94.20;;;;;;5046833;28;20061;-54
2022/06/27 00:29:06;;;;;;;;;;;26.20;94.20;;;;;;5045544;28;20048;-57
2022/06/27 00:31:33;;;;;;;2.33;0.82;;;26.20;94.20;;;;;;5055281;28;19924;-59
2022/06/27 00:34:00;;;;;;;0.20;0.20;;;26.20;94.30;;;;;;5046771;28;20049;-56
2022/06/27 00:36:28;;;;;;;0.60;0.60;;;26.20;94.30;;;;;;5053609;28;20404;-58
2022/06/27 00:38:55;;;;;;;;;;;26.20;94.40;;;;;;5047730;28;20060;-55
2022/06/27 00:41:22;;;;;;;0.98;0.52;;;26.20;94.50;;;;;;5054260;28;19939;-59
2022/06/27 00:43:50;;;;;;;1.50;0.43;;;26.20;94.50;;;;;;5055917;28;20045;-57
2022/06/27 00:46:17;;;;;;;;;;;26.20;94.90;;;;;;5062204;28;20057;-54
2022/06/27 00:48:44;;;;;;;0.82;0.82;;;26.10;94.60;;;;;;5062270;28;19924;-56
2022/06/27 00:51:12;;;;;;;0.40;0.40;;;26.10;94.70;;;;;;5047027;28;20504;-55
2022/06/27 00:53:40;;;;;;;1.80;1.02;;;26.00;95.00;;;;;;5053316;28;20068;-59
2022/06/27 00:56:08;;;;;;;0.40;0.40;;;26.00;95.20;;;;;;5047924;28;20614;-57
2022/06/27 00:58:37;;;;;;;0.60;0.60;;;25.90;95.10;;;;;;5046818;28;20053;-58
2022/06/27 01:01:04;;;;;;;0.40;0.40;;;25.90;95.50;;;;;;5052115;28;20044;-58
2022/06/27 01:03:31;;;;;;;;;;;25.80;95.50;;;;;;5046984;28;20064;-58
2022/06/27 01:05:59;;;;;;;0.40;0.40;;;25.80;95.60;;;;;;5058373;28;19961;-58
2022/06/27 01:08:26;;;;;;;4.43;1.80;;;25.80;95.60;;;;;;5053317;28;20243;-58
2022/06/27 01:10:54;;;;;;;0.45;0.45;;;25.80;95.60;;;;;;5051870;28;20056;-57
2022/06/27 01:13:21;;;;;;;;;;;25.80;95.70;;;;;;5056932;28;20083;-58
2022/06/27 01:15:49;;;;;;;0.60;0.60;;;25.70;95.90;;;;;;5046806;28;19924;-59
2022/06/27 01:18:17;;;;;;;2.17;1.60;;;25.70;95.90;;;;;;5067715;28;20067;-56
2022/06/27 01:20:45;;;;;;;;;;;25.70;96.00;;;;;;5058000;28;20060;-57
2022/06/27 01:23:13;;;;;;;0.95;0.88;;;25.70;96.00;;;;;;5053490;28;19920;-56
2022/06/27 01:25:40;;;;;;;2.10;1.27;;;25.70;96.10;;;;;;5052334;28;20060;-53
2022/06/27 01:28:11;;;;;;;3.10;1.40;;;25.60;96.00;;;;;;5054415;28;20044;-58
2022/06/27 01:30:38;;;;;;;0.30;0.30;;;25.60;96.00;;;;;;5053737;28;20421;-56
2022/06/27 01:33:06;;;;;;;1.30;0.60;;;25.70;95.80;;;;;;5059983;28;20037;-58
2022/06/27 01:35:37;;;;;;;0.93;0.93;;;25.70;95.80;;;;;;5050122;28;20067;-56
2022/06/27 01:38:05;;;;;;;0.40;0.40;;;25.80;95.70;;;;;;5043554;28;20053;-56
2022/06/27 01:40:34;;;;;;;0.40;0.40;;;25.80;95.70;;;;;;5046351;28;20071;-58
2022/06/27 01:43:03;;;;;;;0.20;0.20;;;25.80;95.60;;;;;;5050707;28;20057;-55
2022/06/27 01:45:33;;;;;;;0.50;0.50;;;25.90;95.60;;;;;;5047750;28;20060;-55
2022/06/27 01:48:02;;;;;;;0.60;0.60;;;25.90;95.50;;;;;;5063923;28;20051;-57
2022/06/27 01:50:30;;;;;;;12.10;1.38;;;25.90;95.50;;;;;;5055575;28;20052;-59
2022/06/27 01:53:00;;;;;;;0.95;0.90;;;25.90;95.50;;;;;;5058932;28;20475;-55
2022/06/27 01:55:28;;;;;;;0.30;0.30;;;25.90;95.50;;;;;;5054844;28;20048;-54
2022/06/27 01:57:56;;;;;;;0.30;0.30;;;25.90;95.50;;;;;;5053188;28;20049;-56
2022/06/27 02:00:24;;;;;;;0.40;0.40;;;25.90;95.50;;;;;;5063748;28;20045;-56
2022/06/27 02:02:57;;;;;;;0.20;0.20;;;25.90;95.40;;;;;;5052476;28;20519;-56
2022/06/27 02:05:27;;;;;;;1.23;1.17;;;25.90;95.50;;;;;;5061859;28;20055;-55
2022/06/27 02:07:57;;;;;;;0.30;0.30;;;25.90;95.40;;;;;;5060896;28;20044;-58
2022/06/27 02:10:24;;;;;;;0.30;0.30;;;25.90;95.40;;;;;;5054872;28;20052;-57
2022/06/27 02:12:52;;;;;;;0.50;0.50;;;25.90;95.40;;;;;;5052590;28;20053;-56
2022/06/27 02:15:21;;;;;;;0.40;0.40;;;25.90;95.40;;;;;;5055291;28;20060;-57
2022/06/27 02:17:49;;;;;;;0.50;0.50;;;25.90;95.50;;;;;;5067077;28;20059;-56
2022/06/27 02:20:17;;;;;;;;;;;25.90;95.40;;;;;;5053541;28;20057;-57
2022/06/27 02:22:44;;;;;;;1.25;0.68;;;25.90;95.50;;;;;;5051612;28;19924;-58
2022/06/27 02:25:12;;;;;;;0.75;0.75;;;25.90;95.50;;;;;;5063064;28;20041;-55
2022/06/27 02:27:40;;;;;;;0.60;0.60;;;25.90;95.50;;;;;;5048907;28;20049;-57
2022/06/27 02:30:14;;;;;;;0.40;0.40;;;25.90;95.50;;;;;;5048969;28;20072;-59
2022/06/27 02:32:41;;;;;;;1.23;0.98;;;25.90;95.50;;;;;;5053208;28;20056;-56
2022/06/27 02:35:09;;;;;;;0.38;0.38;;;25.90;95.50;;;;;;5049377;28;20053;-60
2022/06/27 02:37:37;;;;;;;0.43;0.43;;;25.90;95.50;;;;;;5048242;28;20057;-58
2022/06/27 02:40:07;;;;;;;1.38;0.88;;;25.90;95.50;;;;;;5063579;28;20064;-54
2022/06/27 02:42:35;;;;;;;0.28;0.28;;;25.80;95.40;;;;;;5053784;28;20061;-57
2022/06/27 02:45:02;;;;;;;0.73;0.73;;;25.90;95.50;;;;;;5047263;28;20500;-54
2022/06/27 02:47:32;;;;;;;0.40;0.40;;;25.90;95.60;;;;;;5050229;28;20064;-57
2022/06/27 02:50:00;;;;;;;0.20;0.20;;;25.90;95.50;;;;;;5047109;28;20476;-57
2022/06/27 02:52:36;;;;;;;1.42;0.50;;;25.90;95.60;;;;;;5047948;28;20071;-57
2022/06/27 02:55:14;;;;;;;0.28;0.25;;;25.90;95.60;;;;;;5047064;28;20053;-57
2022/06/27 02:58:07;;;;;;;0.45;0.45;;;25.90;95.60;;;;;;5046899;28;20444;-55
2022/06/27 03:00:38;;;;;;;0.40;0.40;;;25.90;95.60;;;;;;5068138;28;20048;-59
2022/06/27 03:03:06;;;;;;;0.30;0.30;;;25.90;95.70;;;;;;5047229;28;20101;-55
2022/06/27 03:05:54;;;;;;;4.85;2.35;;;25.90;95.70;;;;;;5047897;28;20056;-57
2022/06/27 03:08:21;;;;;;;0.80;0.68;;;25.90;95.70;;;;;;5064142;28;20036;-56
2022/06/27 03:10:49;;;;;;;0.70;0.60;;;25.90;95.70;;;;;;5057664;28;20060;-55
2022/06/27 03:13:16;;;;;;;;;;;25.90;95.70;;;;;;5051116;28;20060;-55
2022/06/27 03:15:44;;;;;;;0.40;0.40;;;25.90;95.70;;;;;;5046371;28;19935;-57
2022/06/27 03:18:14;;;;;;;0.30;0.30;;;25.90;95.80;;;;;;5057734;28;20044;-58
2022/06/27 03:21:20;;;;;;;0.45;0.32;;;25.90;95.70;;;;;;5053669;28;20045;-58
2022/06/27 03:23:55;;;;;;;0.50;0.50;;;25.80;95.80;;;;;;5046836;28;20052;-57
2022/06/27 03:26:23;;;;;;;0.75;0.65;;;25.90;95.80;;;;;;5046181;28;20483;-57
2022/06/27 03:28:51;;;;;;;;;;;25.90;95.80;;;;;;5050299;28;20040;-58
2022/06/27 03:31:20;;;;;;;0.30;0.30;;;25.80;95.80;;;;;;5052926;28;19925;-58
2022/06/27 03:33:50;;;;;;;0.40;0.40;;;25.80;95.80;;;;;;5062369;28;20068;-57
2022/06/27 03:36:46;;;;;;;0.30;0.30;;;25.80;95.80;;;;;;5051914;28;20049;-57
2022/06/27 03:39:15;;;;;;;0.68;0.68;;;25.90;95.80;;;;;;5068264;28;20055;-59
2022/06/27 03:41:42;;;;;;;0.30;0.30;;;25.80;95.90;;;;;;5065239;28;20056;-55
2022/06/27 03:44:11;;;;;;;0.70;0.70;;;25.80;95.90;;;;;;5048660;28;20512;-55
2022/06/27 03:46:45;;;;;;;1.77;1.20;;;25.80;95.90;;;;;;5046257;28;20508;-56
2022/06/27 03:52:08;;;;;;;0.80;0.80;;;25.90;95.90;;;;;;5049143;28;20135;-59
2022/06/27 03:54:36;;;;;;;0.30;0.30;;;25.80;96.00;;;;;;5046576;28;20045;-55
2022/06/27 03:57:04;;;;;;;;;;;25.90;96.00;;;;;;5046615;28;20049;-58
2022/06/27 03:59:31;;;;;;;0.35;0.35;;;25.80;96.00;;;;;;5061521;28;19928;-54
2022/06/27 04:01:59;;;;;;;0.60;0.60;;;25.80;96.00;;;;;;5059791;28;20060;-56
2022/06/27 04:04:39;;;;;;;8.57;2.30;;;25.80;96.00;;;;;;5060359;28;20049;-59
2022/06/27 04:07:07;;;;;;;3.13;1.38;;;25.80;96.10;;;;;;5062182;28;20535;-58
2022/06/27 04:09:34;;;;;;;0.25;0.25;;;25.80;96.10;;;;;;5045631;28;20049;-58
2022/06/27 04:12:02;;;;;;;0.63;0.47;;;25.80;96.10;;;;;;5073170;28;20040;-57
2022/06/27 04:14:48;;;;;;;0.80;0.68;;;25.80;96.10;;;;;;5053591;28;20462;-58
2022/06/27 04:17:27;;;;;;;0.40;0.40;;;25.80;96.10;;;;;;5045603;28;20163;-58
2022/06/27 04:20:15;;;;;;;0.30;0.30;;;25.80;96.40;;;;;;5039673;28;20063;-59
2022/06/27 04:22:57;;;;;;;0.30;0.30;;;25.80;96.20;;;;;;5060390;28;20041;-60
2022/06/27 04:25:43;;;;;;;0.60;0.60;;;25.80;96.20;;;;;;5053590;28;20051;-58
2022/06/27 04:28:11;;;;;;;0.70;0.70;;;25.80;96.20;;;;;;5046875;28;20052;-56
2022/06/27 04:30:41;;;;;;;;;;;25.80;96.20;;;;;;5046923;28;20146;-59
2022/06/27 04:33:08;;;;;;;0.20;0.20;;;25.80;96.20;;;;;;5059874;28;19924;-58
2022/06/27 04:35:39;;;;;;;0.30;0.30;;;25.80;96.20;;;;;;5062410;28;20048;-56
2022/06/27 04:38:07;;;;;;;0.30;0.30;;;25.80;96.50;;;;;;5045678;28;20124;-56
2022/06/27 04:40:52;;;;;;;0.30;0.30;;;25.80;96.20;;;;;;5060410;28;20059;-57
2022/06/27 04:43:21;;;;;;;1.08;0.70;;;25.80;96.20;;;;;;5053705;28;20060;-56
2022/06/27 04:45:49;;;;;;;2.85;1.10;;;25.80;96.30;;;;;;5047276;28;20504;-57
2022/06/27 04:48:37;;;;;;;0.35;0.35;;;25.80;96.30;;;;;;5049679;28;20045;-56
2022/06/27 04:51:06;;;;;;;0.77;0.77;;;25.80;96.30;;;;;;5046841;28;20033;-57
2022/06/27 04:53:35;;;;;;;0.38;0.38;;;25.80;96.30;;;;;;5046063;28;20049;-56
2022/06/27 04:56:03;;;;;;;0.35;0.35;;;25.80;96.30;;;;;;5072740;28;20080;-53
2022/06/27 04:58:30;;;;;;;0.30;0.30;;;25.80;96.30;;;;;;5054675;28;20056;-56
2022/06/27 05:00:59;;;;;;;0.20;0.20;;;25.80;96.30;;;;;;5071970;28;20167;-58
2022/06/27 05:03:39;;;;;;;0.30;0.30;;;25.80;96.40;;;;;;5064701;28;20049;-58
2022/06/27 05:06:15;;;;;;;0.90;0.63;;;25.80;96.30;;;;;;5062367;28;20079;-57
2022/06/27 05:08:44;;;;;;;1.35;1.00;;;25.80;96.30;;;;;;5045225;28;20577;-59
2022/06/27 05:11:12;;;;;;;0.68;0.68;;;25.80;96.30;;;;;;5055430;28;20047;-58
2022/06/27 05:13:43;;;;;;;0.38;0.38;;;25.80;96.30;;;;;;5047140;28;20444;-56
2022/06/27 05:16:20;;;;;;;2.15;1.50;;;25.80;96.30;;;;;;5056827;28;20072;-58
2022/06/27 05:18:48;;;;;;;0.30;0.30;;;25.80;96.40;;;;;;5061703;28;20048;-59
2022/06/27 05:21:36;;;;;;;0.20;0.20;;;25.80;96.40;;;;;;5054119;28;20060;-59
2022/06/27 05:24:05;;;;;;;0.60;0.60;;;25.80;96.50;;;;;;5068330;28;20049;-58
2022/06/27 05:26:32;;;;;;;0.20;0.20;;;25.80;96.60;;;;;;5058030;28;20055;-55
2022/06/27 05:29:01;;;;;;;1.27;0.63;;;25.80;96.60;;;;;;5064972;28;20060;-57
2022/06/27 05:31:30;;;;;;;0.20;0.20;;;25.80;96.60;;;;;;5060416;28;20062;-57
2022/06/27 05:33:57;;;;;;;1.35;0.93;;;25.90;96.70;;;;;;5056634;28;20439;-58
2022/06/27 05:36:25;;;;;;;;;;;25.90;97.00;;;;;;5059538;28;20045;-57
2022/06/27 05:38:53;;;;;;;0.38;0.38;;;25.80;97.20;;;;;;5093897;28;20303;-54
2022/06/27 05:41:21;;;;;;;;;;;25.80;97.70;;;;;;5066979;28;20596;-55
2022/06/27 05:43:52;;;;;;;3.03;0.85;;;25.80;97.70;;;;;;5064481;28;19947;-55
2022/06/27 05:46:20;;;;;;;0.57;0.57;;;25.80;97.50;;;;;;5071458;28;20063;-54
2022/06/27 05:49:27;;;;;;;2.22;0.90;;;25.80;97.30;;;;;;5067872;28;20051;-53
2022/06/27 05:51:59;;;;;;;0.45;0.45;;;25.70;97.10;;;;;;5048783;28;20048;-56
2022/06/27 05:54:28;;;;;;;0.52;0.52;;;25.70;97.00;;;;;;5056079;28;20051;-56
2022/06/27 05:56:56;;;;;;;0.20;0.20;;;25.70;96.90;;;;;;5065524;28;20044;-58
2022/06/27 05:59:24;;;;;;;1.20;0.93;;;25.70;97.00;;;;;;5059089;28;20044;-62
2022/06/27 06:01:53;;;;;;;2.08;1.02;;;25.70;96.90;;;;;;5071188;28;20064;-59
2022/06/27 06:04:21;;;;;;;0.73;0.73;;;25.70;96.90;;;;;;5066107;28;20527;-57
2022/06/27 06:06:49;;;;;;;;;;;25.70;97.30;;;;;;5071319;28;20053;-61
2022/06/27 06:09:16;;;;;;;0.70;0.70;;;25.70;97.10;;;;;;5055828;28;19920;-58
2022/06/27 06:11:48;;;;;;;0.65;0.65;;;25.50;97.60;;;;;;5070610;28;20055;-60
2022/06/27 06:14:16;;;;;;;0.90;0.90;;;25.50;97.60;;;;;;5050180;28;20057;-57
2022/06/27 06:16:44;;;;;;;0.38;0.38;;;25.50;98.00;;;;;;5063337;28;20539;-59
2022/06/27 06:19:12;;;;;;;2.55;1.50;;;25.50;98.10;;;;;;5056634;28;20041;-60
2022/06/27 06:21:40;;;;;;;1.65;1.15;;;25.40;98.00;;;;;;5055497;28;20045;-60
2022/06/27 06:24:08;;;;;;;0.45;0.45;;;25.40;98.30;;;;;;5059417;28;20044;-54
2022/06/27 06:26:36;;;;;;;0.40;0.40;;;25.30;98.50;;;;;;5056671;28;20384;-56
2022/06/27 06:29:14;;;;;;;1.20;1.02;;;25.20;98.40;;;;;;5054056;28;20072;-56
2022/06/27 06:31:49;;;;;;;4.05;1.65;;;25.20;98.50;;;;;;5059574;28;20873;-57
2022/06/27 06:34:24;;;;;;;16.75;1.27;;;25.30;98.60;;;;;;5053245;28;20053;-56
2022/06/27 06:36:52;;;;;;;0.45;0.45;;;25.40;98.70;;;;;;5058519;28;20389;-58
2022/06/27 06:39:19;;;;;;;0.50;0.40;;;25.40;98.80;;;;;;5055725;28;20059;-59
2022/06/27 06:41:47;;;;;;;0.32;0.32;;;25.50;98.90;;;;;;5052479;28;20120;-56
2022/06/27 06:44:15;;;;;;;0.52;0.52;;;25.50;99.40;;;;;;5051377;28;20546;-59
2022/06/27 06:47:03;;;;;;;0.70;0.70;;;25.60;99.80;;;;;;5058150;28;20047;-57
2022/06/27 06:49:39;;;;;;;1.10;0.85;;;25.60;99.90;;;;;;5054619;28;20103;-58
2022/06/27 06:52:07;;;;;;;1.00;0.93;;;25.60;99.90;;;;;;5063627;28;20036;-59
2022/06/27 06:54:34;;;;;;;1.05;0.90;;;25.70;99.90;;;;;;5054756;28;20049;-58
2022/06/27 06:57:02;;;;;;;3.10;1.35;;;25.70;99.90;;;;;;5052594;28;20044;-56
2022/06/27 06:59:29;;;;;;;2.22;0.95;;;25.60;99.90;;;;;;5058174;28;20052;-59
2022/06/27 07:01:57;;;;;;;0.60;0.60;;;25.50;99.90;;;;;;5059975;28;20048;-57
2022/06/27 07:04:25;;;;;;;0.30;0.30;;;25.40;99.90;;;;;;5051410;28;20041;-55
2022/06/27 07:06:54;;;;;;;0.63;0.63;;;25.40;99.90;;;;;;5056512;28;20586;-60
2022/06/27 07:09:21;;;;;;;0.65;0.65;;;25.50;99.90;;;;;;5050153;28;20052;-57
2022/06/27 07:11:50;;;;;;;;;;;25.60;99.90;;;;;;5052384;28;20567;-61
2022/06/27 07:14:19;;;;;;;0.40;0.40;;;25.70;99.90;;;;;;5053187;28;19924;-57
2022/06/27 07:16:48;;;;;;;0.30;0.30;;;25.70;99.90;;;;;;5050675;28;20408;-58
2022/06/27 07:19:16;;;;;;;4.80;2.08;;;25.70;99.90;;;;;;5058147;28;20045;-60
2022/06/27 07:21:43;;;;;;;0.50;0.50;;;25.60;99.90;;;;;;5060119;28;20109;-61
2022/06/27 07:24:10;;;;;;;58.20;2.85;;;25.60;99.90;;;;;;5050795;28;20053;-59
2022/06/27 07:26:38;;;;;;;1.05;0.95;;;25.60;99.90;;;;;;5062616;28;20071;-60
2022/06/27 07:29:06;;;;;;;0.60;0.60;;;25.60;99.90;;;;;;5047885;28;20092;-58
2022/06/27 07:31:33;;;;;;;1.17;0.85;;;25.60;99.90;;;;;;5053086;28;20040;-61
2022/06/27 07:34:02;;;;;;;0.35;0.35;;;25.60;99.90;;;;;;5051755;28;20056;-57
2022/06/27 07:36:32;;;;;;;2.72;1.35;;;25.60;99.90;;;;;;5052653;28;20045;-54
2022/06/27 07:39:00;;;;;;;2.53;0.88;;;25.60;99.90;;;;;;5058992;28;20041;-59
2022/06/27 07:41:30;;;;;;;0.63;0.63;;;25.60;99.90;;;;;;5056231;28;20059;-58
2022/06/27 07:43:58;;;;;;;0.30;0.30;;;25.70;99.90;;;;;;5059583;28;20060;-59
2022/06/27 07:46:25;;;;;;;2.35;1.00;;;25.70;99.90;;;;;;5069630;28;20049;-56
2022/06/27 07:48:53;;;;;;;0.68;0.68;;;25.70;99.90;;;;;;5057944;28;20052;-60
2022/06/27 07:51:21;;;;;;;;;;;25.70;99.90;;;;;;5030201;28;20064;-60
2022/06/27 07:53:50;;;;;;;;;;;25.70;99.90;;;;;;5066471;28;19924;-61
2022/06/27 07:56:18;;;;;;;1.35;0.95;;;25.70;99.90;;;;;;5057685;28;20334;-59
2022/06/27 07:59:06;;;;;;;0.30;0.30;;;25.70;99.90;;;;;;5055732;28;20426;-59
2022/06/27 08:01:35;;;;;;;0.65;0.65;;;25.70;99.90;;;;;;5055318;28;20049;-57
2022/06/27 08:04:04;;;;;;;2.65;1.70;;;25.70;99.90;;;;;;5051351;28;20063;-59
2022/06/27 08:06:31;;;;;;;2.80;1.38;;;25.70;99.90;;;;;;5056874;28;20041;-60
2022/06/27 08:09:02;;;;;;;0.35;0.35;;;25.70;99.90;;;;;;5054108;28;20468;-57
2022/06/27 08:11:38;;;;;;;0.38;0.38;;;25.70;99.90;;;;;;5057350;28;20052;-59
2022/06/27 08:14:08;;;;;;;2.63;1.35;;;25.70;99.90;;;;;;5055967;28;20075;-57
2022/06/27 08:16:37;;;;;;;1.38;1.05;;;25.70;99.90;;;;;;5064840;28;20040;-58
2022/06/27 08:19:04;;;;;;;2.33;0.75;;;25.70;99.90;;;;;;5067886;28;20440;-58
2022/06/27 08:21:34;;;;;;;3.22;1.00;;;25.70;99.90;;;;;;5060100;28;20064;-53
2022/06/27 08:24:07;;;;;;;0.40;0.40;;;25.70;99.90;;;;;;5058749;28;20060;-60
2022/06/27 08:26:36;;;;;;;0.77;0.77;;;25.80;99.90;;;;;;5060469;28;20045;-59
2022/06/27 08:29:05;;;;;;;0.30;0.30;;;25.90;99.90;;;;;;5055413;28;20044;-58
2022/06/27 08:31:34;;;;;;;0.50;0.50;;;25.90;99.90;;;;;;5048465;28;20049;-56
2022/06/27 08:34:02;;;;;;;1.40;0.93;;;25.90;99.90;;;;;;5064365;28;20057;-61
2022/06/27 08:36:36;;;;;;;0.65;0.65;;;25.90;99.90;;;;;;5058026;28;20049;-61
2022/06/27 08:39:07;;;;;;;1.77;1.20;;;25.90;99.90;;;;;;5057223;28;20044;-62
2022/06/27 08:41:35;;;;;;;0.90;0.88;;;25.90;99.90;;;;;;5068003;28;20057;-63
2022/06/27 08:44:04;;;;;;;2.83;1.38;;;25.90;99.90;;;;;;5056827;28;20045;-66
2022/06/27 08:46:33;;;;;;;1.45;0.68;;;25.90;99.90;;;;;;5053710;28;20045;-62
2022/06/27 08:49:02;;;;;;;0.50;0.50;;;25.90;99.90;;;;;;5050335;28;20059;-60
2022/06/27 08:51:31;;;;;;;0.75;0.75;;;26.00;99.90;;;;;;5054945;28;20064;-63
2022/06/27 08:53:59;;;;;;;0.50;0.50;;;26.00;99.90;;;;;;5061227;28;20051;-64
2022/06/27 08:56:29;;;;;;;0.25;0.25;;;26.00;99.90;;;;;;5061361;28;20049;-60
2022/06/27 08:58:58;;;;;;;0.68;0.68;;;26.00;99.90;;;;;;5056618;28;20491;-58
2022/06/27 09:01:27;;;;;;;0.82;0.70;;;26.10;99.90;;;;;;5059413;28;20041;-59
2022/06/27 09:04:00;;;;;;;1.25;1.00;;;26.10;99.90;;;;;;5062132;28;20463;-63
2022/06/27 09:06:37;;;;;;;0.98;0.70;;;26.20;99.90;;;;;;5061903;28;20088;-64
2022/06/27 09:09:08;;;;;;;0.50;0.50;;;26.20;99.90;;;;;;5065775;28;20044;-66
2022/06/27 09:11:37;;;;;;;4.00;2.55;;;26.30;99.90;;;;;;5058781;28;20041;-60
2022/06/27 09:14:06;;;;;;;0.45;0.45;;;26.30;99.90;;;;;;5058174;28;20487;-57
2022/06/27 09:16:34;;;;;;;1.23;0.95;;;26.30;99.90;;;;;;5057550;28;20523;-61
2022/06/27 09:19:06;;;;;;;0.55;0.55;;;26.40;99.90;;;;;;5055210;28;20041;-57
2022/06/27 09:21:34;;;;;;;;;;;26.40;99.90;;;;;;5061930;28;20049;-60
2022/06/27 09:24:02;;;;;;;0.93;0.73;;;26.50;99.90;;;;;;5064224;28;20038;-58
2022/06/27 09:26:31;;;;;;;;;;;26.50;99.90;;;;;;5059176;28;20405;-61
2022/06/27 09:29:07;;;;;;;0.40;0.40;;;26.50;99.90;;;;;;5062102;28;19920;-61
2022/06/27 09:31:42;;;;;;;0.50;0.35;;;26.50;99.90;;;;;;5068727;28;20078;-61
2022/06/27 09:34:14;;;;;;;0.40;0.40;;;26.40;99.90;;;;;;5052008;28;20029;-61
2022/06/27 09:37:01;;;;;;;1.30;1.20;;;26.40;99.90;;;;;;5059072;28;20055;-61
2022/06/27 09:39:29;;;;;;;;;;;26.40;99.90;;;;;;5053547;28;20147;-61
2022/06/27 09:42:03;;;;;;;0.65;0.65;;;26.40;99.90;;;;;;5059999;28;19951;-61
2022/06/27 09:44:41;;;;;;;0.85;0.75;;;26.40;99.90;;;;;;5056348;28;20504;-58
2022/06/27 09:47:17;;;;;;;0.35;0.35;;;26.40;99.90;;;;;;5059186;28;20052;-61
2022/06/27 09:49:50;;;;;;;0.70;0.70;;;26.40;99.90;;;;;;5060243;28;20076;-60
2022/06/27 09:52:20;;;;;;;2.65;0.85;;;26.40;99.90;;;;;;5054587;28;20503;-60
2022/06/27 09:54:50;;;;;;;0.32;0.32;;;26.40;99.90;;;;;;5061698;28;20520;-60
2022/06/27 09:57:19;;;;;;;0.20;0.20;;;26.40;99.90;;;;;;5052479;28;20117;-53
2022/06/27 09:59:49;;;;;;;1.17;0.70;;;26.40;99.90;;;;;;5060528;28;20048;-57
2022/06/27 10:02:18;;;;;;;0.32;0.32;;;26.30;99.90;;;;;;5055591;28;20059;-62
2022/06/27 10:04:48;;;;;;;1.27;0.65;;;26.20;99.90;;;;;;5059728;28;20041;-61
2022/06/27 10:07:17;;;;;;;0.40;0.40;;;26.30;99.90;;;;;;5053956;28;20083;-56
2022/06/27 10:09:48;;;;;;;0.40;0.40;;;26.20;99.90;;;;;;5057276;28;20053;-62
2022/06/27 10:12:31;;;;;;;0.25;0.25;;;26.10;99.90;;;;;;5049418;28;20044;-56
2022/06/27 10:15:10;;;;;;;0.63;0.63;;;26.20;99.90;;;;;;5055242;28;20037;-61
2022/06/27 10:18:05;;;;;;;0.40;0.40;;;26.20;99.90;;;;;;5054366;28;20504;-62
2022/06/27 10:20:37;;;;;;;1.17;0.82;;;26.30;99.90;;;;;;5054401;28;20057;-59
2022/06/27 10:23:11;;;;;;;2.83;1.38;;;26.30;99.90;;;;;;5056462;28;20771;-59
2022/06/27 10:25:41;;;;;;;0.40;0.40;;;26.30;99.90;;;;;;5065256;28;20550;-56
2022/06/27 10:28:18;;;;;;;2.80;1.08;;;26.30;99.90;;;;;;5065719;28;20071;-57
2022/06/27 10:30:48;;;;;;;0.65;0.50;;;26.30;99.90;;;;;;5059848;28;20048;-56
2022/06/27 10:33:28;;;;;;;1.88;0.77;;;26.30;99.90;;;;;;5057394;28;20045;-57
2022/06/27 10:35:55;;;;;;;0.55;0.52;;;26.20;99.90;;;;;;5056549;28;20041;-56
2022/06/27 10:38:24;;;;;;;1.08;0.95;;;26.20;99.90;;;;;;5058523;28;20712;-58
2022/06/27 10:40:53;;;;;;;5.38;1.85;;;26.20;99.90;;;;;;5057268;28;20040;-62
2022/06/27 10:43:35;;;;;;;0.70;0.70;;;26.20;99.90;;;;;;5056013;28;20396;-64
2022/06/27 10:46:08;;;;;;;1.15;1.05;;;26.20;99.90;;;;;;5064303;28;20491;-61
2022/06/27 10:48:42;;;;;;;0.60;0.60;;;26.20;99.90;;;;;;5054714;28;20056;-59
2022/06/27 10:51:24;;;;;;;1.90;0.82;;;26.20;99.90;;;;;;5058289;28;20064;-63
2022/06/27 10:54:04;;;;;;;0.70;0.70;;;26.20;99.90;;;;;;5063147;28;20044;-62
2022/06/27 10:56:34;;;;;;;1.13;0.60;;;26.20;99.90;;;;;;5063221;28;20044;-61
2022/06/27 10:59:06;;;;;;;0.40;0.40;;;26.20;99.90;;;;;;5061293;28;20036;-62
2022/06/27 11:01:34;;;;;;;0.30;0.30;;;26.20;99.90;;;;;;5059485;28;20049;-63
2022/06/27 11:04:02;;;;;;;0.57;0.52;;;26.20;99.90;;;;;;5049819;28;20582;-58
2022/06/27 11:06:29;;;;;;;4.28;1.98;;;26.20;99.90;;;;;;5057919;28;20047;-61
2022/06/27 11:08:56;;;;;;;4.10;0.55;;;26.20;99.90;;;;;;5053425;28;20056;-58
2022/06/27 11:11:30;;;;;;;0.38;0.38;;;26.20;99.90;;;;;;5053993;28;20515;-62
2022/06/27 11:14:00;;;;;;;0.57;0.57;;;26.20;99.90;;;;;;5059980;28;20056;-59
2022/06/27 11:16:33;;;;;;;0.70;0.70;;;26.20;99.90;;;;;;5060791;28;20040;-61
2022/06/27 11:21:52;;;;;;;0.80;0.77;;;26.20;99.90;;;;;;5053955;28;20413;-61
2022/06/27 11:24:19;;;;;;;0.50;0.50;;;26.20;99.90;;;;;;5065829;28;20068;-60
2022/06/27 11:26:49;;;;;;;0.43;0.43;;;26.10;99.90;;;;;;5057540;28;20411;-60
2022/06/27 11:32:06;;;;;;;0.40;0.40;;;26.00;99.90;;;;;;5064546;28;20045;-61
2022/06/27 11:34:57;;;;;;;2.17;1.42;;;26.10;99.90;;;;;;5056685;28;20451;-62
2022/06/27 11:37:29;;;;;;;2.20;1.33;;;26.00;99.50;;;;;;5055246;28;20067;-63
2022/06/27 11:40:05;;;;;;;0.70;0.60;;;26.00;99.60;;;;;;5049122;28;20060;-62
2022/06/27 11:42:40;;;;;;;10.50;2.23;;;26.00;98.80;;;;;;5053281;28;20498;-62
2022/06/27 11:45:13;;;;;;;1.65;0.85;;;26.10;98.90;;;;;;5055091;28;20767;-60
2022/06/27 11:47:43;;;;;;;1.77;1.20;;;26.00;98.70;;;;;;5055875;28;20409;-62
2022/06/27 11:50:19;;;;;;;0.90;0.90;;;26.00;98.40;;;;;;5060147;28;20044;-63
2022/06/27 11:52:51;;;;;;;0.50;0.50;;;26.00;98.20;;;;;;5049808;28;20511;-63
2022/06/27 11:55:24;;;;;;;0.45;0.45;;;26.00;98.00;;;;;;5050308;28;20389;-63
2022/06/27 11:57:57;;;;;;;0.40;0.40;;;25.90;97.80;;;;;;5067433;28;20044;-64
2022/06/27 12:00:26;;;;;;;0.63;0.63;;;25.90;97.50;;;;;;5070614;28;20605;-66
2022/06/27 12:03:06;;;;;;;1.02;0.63;;;25.90;97.20;;;;;;5060830;28;20052;-58
2022/06/27 12:05:35;;;;;;;0.65;0.65;;;25.90;96.80;;;;;;5058660;28;20059;-60
2022/06/27 12:08:06;;;;;;;0.40;0.40;;;26.00;96.70;;;;;;5054323;28;20190;-56
2022/06/27 12:13:39;;;;;;;0.50;0.50;;;26.00;96.60;;;;;;5047917;28;20049;-57
2022/06/27 12:16:09;;;;;;;0.95;0.93;;;26.00;97.10;;;;;;5059153;28;20048;-61
2022/06/27 12:18:42;;;;;;;0.52;0.52;;;26.00;97.70;;;;;;5064765;28;20049;-58
2022/06/27 12:21:10;;;;;;;0.40;0.40;;;26.10;97.80;;;;;;5055271;28;20554;-61
2022/06/27 12:23:38;;;;;;;0.98;0.60;;;26.20;98.10;;;;;;5057170;28;20108;-60
2022/06/27 12:26:06;;;;;;;;;;;26.20;98.30;;;;;;5049616;28;20048;-61
2022/06/27 12:28:33;;;;;;;0.65;0.65;;;26.20;98.50;;;;;;5050836;28;19920;-59
2022/06/27 12:31:01;;;;;;;0.63;0.63;;;26.20;99.00;;;;;;5049804;28;20056;-60
2022/06/27 12:33:28;;;;;;;;;;;26.20;98.90;;;;;;5054026;28;20049;-61
2022/06/27 12:35:56;;;;;;;0.30;0.30;;;26.20;98.80;;;;;;5056480;28;19924;-56
2022/06/27 12:38:23;;;;;;;0.30;0.30;;;26.20;98.60;;;;;;5057295;28;20355;-57
2022/06/27 12:41:11;;;;;;;0.55;0.55;;;26.20;98.40;;;;;;5051495;28;20040;-59
2022/06/27 12:43:39;;;;;;;0.30;0.30;;;26.10;98.10;;;;;;5063272;28;20469;-56
2022/06/27 12:46:07;;;;;;;1.55;0.90;;;26.10;97.90;;;;;;5060673;28;20397;-57
2022/06/27 12:48:37;;;;;;;0.90;0.68;;;26.10;97.70;;;;;;5053862;28;20049;-59
2022/06/27 12:51:06;;;;;;;0.90;0.57;;;26.10;97.50;;;;;;5057646;28;20586;-61
2022/06/27 12:53:34;;;;;;;0.38;0.38;;;26.10;97.40;;;;;;5060913;28;20040;-62
2022/06/27 12:56:03;;;;;;;0.55;0.35;;;26.20;97.30;;;;;;5054899;28;20060;-59
2022/06/27 12:58:33;;;;;;;0.30;0.30;;;26.20;97.10;;;;;;5060931;28;20041;-61
2022/06/27 13:01:01;;;;;;;0.40;0.40;;;26.20;97.00;;;;;;5063419;28;20045;-61
2022/06/27 13:03:28;;;;;;;1.67;0.80;;;26.20;96.90;;;;;;5049453;28;20055;-60
2022/06/27 13:05:56;;;;;;;;;;;26.10;96.80;;;;;;5054763;28;20060;-59
2022/06/27 13:08:23;;;;;;;0.40;0.40;;;26.10;96.70;;;;;;5047214;28;20314;-61
2022/06/27 13:10:50;;;;;;;;;;;26.10;96.70;;;;;;5052081;28;20458;-56
2022/06/27 13:13:18;;;;;;;0.40;0.40;;;26.20;96.60;;;;;;5046953;28;19931;-62
2022/06/27 13:15:46;;;;;;;;;;;26.20;96.50;;;;;;5084365;28;20064;-60
2022/06/27 13:18:13;;;;;;;;;;;26.20;96.40;;;;;;5059044;28;19920;-59
2022/06/27 13:20:40;;;;;;;1.08;0.75;;;26.20;96.40;;;;;;5048682;28;20015;-62
2022/06/27 13:23:14;;;;;;;0.70;0.45;;;26.20;96.30;;;;;;5058845;28;20052;-55